Time;durP1;ratioP1;P1;durP2;ratioP2;P2;SDS_P1;SDS_P2;PMS_P1;PMS_P2;Temp;Humidity;BMP_temperature;BMP_pressure;BME280_temperature;BME280_humidity;BME280_pressure;Samples;Min_cycle;Max_cycle;Signal;HPM_P1;HPM_P2
2022/08/20 00:01:14;;;;;;;9.48;5.75;;;;;;;;;;5055462;28;20076;-54
2022/08/20 00:03:42;;;;;;;6.80;5.60;;;;;;;;;;5055099;28;20480;-55
2022/08/20 00:06:13;;;;;;;10.73;6.13;;;;;;;;;;5055595;28;20057;-55
2022/08/20 00:08:41;;;;;;;7.78;5.40;;;;;;;;;;5048334;28;20093;-55
2022/08/20 00:11:13;;;;;;;9.48;5.45;;;;;;;;;;5035433;28;20049;-56
2022/08/20 00:13:43;;;;;;;9.65;5.28;;;;;;;;;;5035147;28;20053;-54
2022/08/20 00:16:13;;;;;;;9.73;5.53;;;;;;;;;;5050652;28;20389;-55
2022/08/20 00:18:40;;;;;;;8.27;5.75;;;;;;;;;;5054026;28;20052;-52
2022/08/20 00:21:17;;;;;;;9.32;5.20;;;;;;;;;;5053660;28;20044;-54
2022/08/20 00:23:46;;;;;;;8.50;5.38;;;;;;;;;;5054953;28;20398;-56
2022/08/20 00:26:13;;;;;;;9.63;6.55;;;;;;;;;;5054438;28;20049;-56
2022/08/20 00:28:54;;;;;;;11.57;5.90;;;;;;;;;;5054516;28;20059;-55
2022/08/20 00:31:22;;;;;;;11.68;6.10;;;;;;;;;;5054280;28;20067;-55
2022/08/20 00:34:00;;;;;;;8.18;5.53;;;;;;;;;;5054398;28;20064;-53
2022/08/20 00:36:26;;;;;;;11.77;6.28;;;;;;;;;;5054834;28;20048;-55
2022/08/20 00:38:57;;;;;;;10.98;5.72;;;;;;;;;;5054570;28;20057;-56
2022/08/20 00:41:27;;;;;;;11.23;5.80;;;;;;;;;;5054035;28;20052;-56
2022/08/20 00:44:05;;;;;;;7.70;5.72;;;;;;;;;;5051505;28;20053;-55
2022/08/20 00:46:34;;;;;;;11.73;6.25;;;;;;;;;;5054437;28;20072;-55
2022/08/20 00:49:07;;;;;;;12.95;7.00;;;;;;;;;;5054148;28;20052;-55
2022/08/20 00:51:45;;;;;;;8.70;6.57;;;;;;;;;;5054719;28;20053;-56
2022/08/20 00:54:14;;;;;;;7.47;5.68;;;;;;;;;;5034747;28;20081;-55
2022/08/20 00:56:43;;;;;;;10.18;6.60;;;;;;;;;;5034450;28;20374;-56
2022/08/20 00:59:15;;;;;;;12.95;7.55;;;;;;;;;;5034278;28;20081;-55
2022/08/20 01:01:47;;;;;;;14.25;7.40;;;;;;;;;;5034639;28;20149;-55
2022/08/20 01:04:15;;;;;;;9.45;7.15;;;;;;;;;;5034754;28;20128;-53
2022/08/20 01:06:46;;;;;;;12.48;7.20;;;;;;;;;;5034045;28;20122;-54
2022/08/20 01:09:15;;;;;;;9.02;5.53;;;;;;;;;;5045766;28;20045;-52
2022/08/20 01:11:43;;;;;;;7.85;6.25;;;;;;;;;;5053778;28;20107;-54
2022/08/20 01:14:35;;;;;;;9.77;7.38;;;;;;;;;;5054043;28;20057;-52
2022/08/20 01:17:04;;;;;;;9.38;7.65;;;;;;;;;;5054530;28;20080;-55
2022/08/20 01:19:33;;;;;;;9.95;6.60;;;;;;;;;;5054305;28;20080;-51
2022/08/20 01:23:25;;;;;;;11.32;7.88;;;;;;;;;;5053783;28;20083;-52
2022/08/20 01:24:55;;;;;;;9.60;6.47;;;;;;;;;;5053228;28;20422;-52
2022/08/20 01:27:30;;;;;;;11.30;6.78;;;;;;;;;;5054281;28;20056;-54
2022/08/20 01:30:01;;;;;;;8.82;6.43;;;;;;;;;;5054259;28;20053;-54
2022/08/20 01:32:31;;;;;;;10.50;8.10;;;;;;;;;;5054239;28;20052;-54
2022/08/20 01:35:00;;;;;;;9.00;7.10;;;;;;;;;;5054078;28;20060;-53
2022/08/20 01:37:29;;;;;;;11.45;7.80;;;;;;;;;;5053997;28;20053;-54
2022/08/20 01:39:59;;;;;;;16.63;10.45;;;;;;;;;;5054300;28;20091;-56
2022/08/20 01:42:30;;;;;;;16.63;11.15;;;;;;;;;;5045318;28;20045;-57
2022/08/20 01:45:00;;;;;;;15.90;10.55;;;;;;;;;;5053982;28;20469;-53
2022/08/20 01:47:30;;;;;;;16.35;11.63;;;;;;;;;;5054238;28;20283;-57
2022/08/20 01:50:01;;;;;;;17.13;11.52;;;;;;;;;;5054106;28;20458;-57
2022/08/20 01:52:32;;;;;;;11.88;9.85;;;;;;;;;;5056130;28;20431;-57
2022/08/20 01:55:03;;;;;;;13.40;9.57;;;;;;;;;;5058043;28;20076;-57
2022/08/20 01:57:33;;;;;;;19.90;11.63;;;;;;;;;;5057914;28;20099;-57
2022/08/20 02:00:03;;;;;;;17.40;11.38;;;;;;;;;;5057631;28;20445;-54
2022/08/20 02:02:33;;;;;;;11.52;9.57;;;;;;;;;;5057818;28;20060;-56
2022/08/20 02:05:01;;;;;;;16.77;11.13;;;;;;;;;;5056927;28;20067;-53
2022/08/20 02:07:31;;;;;;;16.77;12.13;;;;;;;;;;5056834;28;20049;-55
2022/08/20 02:10:00;;;;;;;15.73;11.82;;;;;;;;;;5038641;28;20144;-53
2022/08/20 02:12:26;;;;;;;15.32;11.75;;;;;;;;;;5036931;28;20096;-55
2022/08/20 02:14:59;;;;;;;17.58;13.10;;;;;;;;;;5053058;28;20052;-54
2022/08/20 02:17:29;;;;;;;15.95;10.90;;;;;;;;;;5056607;28;20109;-54
2022/08/20 02:19:57;;;;;;;12.82;9.65;;;;;;;;;;5056229;28;20049;-54
2022/08/20 02:22:28;;;;;;;14.93;10.10;;;;;;;;;;5056653;28;20060;-56
2022/08/20 02:24:56;;;;;;;12.68;9.15;;;;;;;;;;5056659;28;20071;-54
2022/08/20 02:27:26;;;;;;;10.68;9.02;;;;;;;;;;5056441;28;20045;-52
2022/08/20 02:30:09;;;;;;;12.73;10.20;;;;;;;;;;5056657;28;20045;-52
2022/08/20 02:32:43;;;;;;;16.65;12.63;;;;;;;;;;5056289;28;20095;-53
2022/08/20 02:35:13;;;;;;;20.30;14.43;;;;;;;;;;5056467;28;20071;-53
2022/08/20 02:37:40;;;;;;;14.80;11.25;;;;;;;;;;5056452;28;20063;-53
2022/08/20 02:40:17;;;;;;;17.38;12.68;;;;;;;;;;5056187;28;20425;-53
2022/08/20 02:42:46;;;;;;;14.88;12.20;;;;;;;;;;5056175;28;20057;-53
2022/08/20 02:45:17;;;;;;;14.20;11.02;;;;;;;;;;5056166;28;20057;-54
2022/08/20 02:47:55;;;;;;;15.38;11.15;;;;;;;;;;5055969;28;20076;-52
2022/08/20 02:50:24;;;;;;;13.48;10.38;;;;;;;;;;5055827;28;20107;-55
2022/08/20 02:52:52;;;;;;;13.00;10.63;;;;;;;;;;5055970;28;20102;-54
2022/08/20 02:55:18;;;;;;;15.27;11.13;;;;;;;;;;5056303;28;20056;-53
2022/08/20 02:57:48;;;;;;;15.40;10.05;;;;;;;;;;5056030;28;20059;-52
2022/08/20 03:00:19;;;;;;;11.07;9.68;;;;;;;;;;5055938;28;20053;-53
2022/08/20 03:02:47;;;;;;;12.15;9.95;;;;;;;;;;5055511;28;20049;-55
2022/08/20 03:05:14;;;;;;;13.40;10.07;;;;;;;;;;5053741;28;20048;-56
2022/08/20 03:07:45;;;;;;;14.80;11.38;;;;;;;;;;5055758;28;20053;-52
2022/08/20 03:10:13;;;;;;;14.75;10.82;;;;;;;;;;5055610;28;20061;-54
2022/08/20 03:12:41;;;;;;;14.18;10.30;;;;;;;;;;5055818;28;20175;-56
2022/08/20 03:15:10;;;;;;;17.00;12.00;;;;;;;;;;5055219;28;20369;-56
2022/08/20 03:17:37;;;;;;;15.02;10.27;;;;;;;;;;5055637;28;20064;-54
2022/08/20 03:20:08;;;;;;;14.07;10.55;;;;;;;;;;5055332;28;20049;-55
2022/08/20 03:22:37;;;;;;;14.43;10.38;;;;;;;;;;5055373;28;20053;-52
2022/08/20 03:25:07;;;;;;;12.25;9.18;;;;;;;;;;5054828;28;20102;-54
2022/08/20 03:27:35;;;;;;;12.73;8.98;;;;;;;;;;5053735;28;20141;-52
2022/08/20 03:30:04;;;;;;;11.30;8.45;;;;;;;;;;5053787;28;20438;-53
2022/08/20 03:32:34;;;;;;;12.30;9.25;;;;;;;;;;5054935;28;20084;-52
2022/08/20 03:35:04;;;;;;;12.27;9.10;;;;;;;;;;5054180;28;20056;-56
2022/08/20 03:37:34;;;;;;;11.88;7.95;;;;;;;;;;5054692;28;20053;-51
2022/08/20 03:40:04;;;;;;;13.27;8.05;;;;;;;;;;5054839;28;20053;-54
2022/08/20 03:42:33;;;;;;;12.05;7.95;;;;;;;;;;5054628;28;20049;-52
2022/08/20 03:45:00;;;;;;;9.13;7.07;;;;;;;;;;5054682;28;20068;-54
2022/08/20 03:47:28;;;;;;;11.88;7.80;;;;;;;;;;5054747;28;20048;-55
2022/08/20 03:50:05;;;;;;;11.18;7.57;;;;;;;;;;5055152;28;20072;-55
2022/08/20 03:52:34;;;;;;;13.27;9.23;;;;;;;;;;5054863;28;20115;-51
2022/08/20 03:55:04;;;;;;;11.30;7.45;;;;;;;;;;5054842;28;20080;-52
2022/08/20 03:57:33;;;;;;;12.73;7.43;;;;;;;;;;5054761;28;20061;-51
2022/08/20 04:00:02;;;;;;;10.13;6.72;;;;;;;;;;5054785;28;20071;-52
2022/08/20 04:02:30;;;;;;;8.65;7.15;;;;;;;;;;5054447;28;20049;-54
2022/08/20 04:04:58;;;;;;;10.52;7.75;;;;;;;;;;5054688;28;20481;-53
2022/08/20 04:07:27;;;;;;;10.90;7.05;;;;;;;;;;5054902;28;20115;-54
2022/08/20 04:09:58;;;;;;;13.23;8.45;;;;;;;;;;5054852;28;20052;-52
2022/08/20 04:12:28;;;;;;;9.48;6.90;;;;;;;;;;5054871;28;20060;-51
2022/08/20 04:14:55;;;;;;;16.98;7.80;;;;;;;;;;5054685;28;20126;-56
2022/08/20 04:17:22;;;;;;;14.07;8.15;;;;;;;;;;5053510;28;20045;-54
2022/08/20 04:19:49;;;;;;;10.70;7.13;;;;;;;;;;5054107;28;20485;-56
2022/08/20 04:22:19;;;;;;;12.25;7.07;;;;;;;;;;5053977;28;20045;-54
2022/08/20 04:24:49;;;;;;;12.32;7.45;;;;;;;;;;5054785;28;20049;-52
2022/08/20 04:27:20;;;;;;;12.15;7.53;;;;;;;;;;5054197;28;20533;-51
2022/08/20 04:29:51;;;;;;;14.20;7.47;;;;;;;;;;5054244;28;20052;-53
2022/08/20 04:32:20;;;;;;;12.45;8.38;;;;;;;;;;5053514;28;20049;-52
2022/08/20 04:34:51;;;;;;;14.38;6.93;;;;;;;;;;5053225;28;20056;-52
2022/08/20 04:37:19;;;;;;;10.10;8.00;;;;;;;;;;5053683;28;20422;-55
2022/08/20 04:40:52;;;;;;;10.70;6.95;;;;;;;;;;5053815;28;20478;-52
2022/08/20 04:42:36;;;;;;;9.32;7.10;;;;;;;;;;5053942;28;20060;-55
2022/08/20 04:45:05;;;;;;;10.65;7.80;;;;;;;;;;5053880;28;20063;-54
2022/08/20 04:47:36;;;;;;;10.05;7.20;;;;;;;;;;5053140;28;20052;-51
2022/08/20 04:50:05;;;;;;;9.30;7.63;;;;;;;;;;5052893;28;20124;-52
2022/08/20 04:52:32;;;;;;;15.65;7.97;;;;;;;;;;5053829;28;20148;-52
2022/08/20 04:55:00;;;;;;;12.32;8.02;;;;;;;;;;5053668;28;20461;-51
2022/08/20 04:57:29;;;;;;;13.57;8.07;;;;;;;;;;5053665;28;20136;-52
2022/08/20 04:59:55;;;;;;;11.48;8.45;;;;;;;;;;5053360;28;20049;-51
2022/08/20 05:02:25;;;;;;;13.65;7.97;;;;;;;;;;5053085;28;20053;-52
2022/08/20 05:04:54;;;;;;;14.48;8.80;;;;;;;;;;5052414;28;20145;-54
2022/08/20 05:07:21;;;;;;;13.00;9.57;;;;;;;;;;5052824;28;20060;-52
2022/08/20 05:09:51;;;;;;;15.93;9.85;;;;;;;;;;5053528;28;20048;-52
2022/08/20 05:12:21;;;;;;;15.68;9.55;;;;;;;;;;5053631;28;20064;-55
2022/08/20 05:14:47;;;;;;;16.83;10.55;;;;;;;;;;5053360;28;20063;-51
2022/08/20 05:17:23;;;;;;;15.77;9.68;;;;;;;;;;5052945;28;20053;-51
2022/08/20 05:19:51;;;;;;;15.50;10.13;;;;;;;;;;5053451;28;20144;-53
2022/08/20 05:22:18;;;;;;;14.80;10.52;;;;;;;;;;5053210;28;20709;-52
2022/08/20 05:24:48;;;;;;;16.30;11.48;;;;;;;;;;5053437;28;20064;-55
2022/08/20 05:27:18;;;;;;;18.20;12.95;;;;;;;;;;5052466;28;20124;-54
2022/08/20 05:29:47;;;;;;;15.85;10.85;;;;;;;;;;5053556;28;20048;-53
2022/08/20 05:32:16;;;;;;;18.02;11.23;;;;;;;;;;5052726;28;20064;-53
2022/08/20 05:34:44;;;;;;;14.98;10.32;;;;;;;;;;5053047;28;20048;-53
2022/08/20 05:37:12;;;;;;;14.98;11.25;;;;;;;;;;5052551;28;20055;-55
2022/08/20 05:39:39;;;;;;;17.95;13.23;;;;;;;;;;5052672;28;20140;-54
2022/08/20 05:42:10;;;;;;;19.40;13.68;;;;;;;;;;5052740;28;20477;-55
2022/08/20 05:44:37;;;;;;;21.45;15.32;;;;;;;;;;5052880;28;20438;-51
2022/08/20 05:47:08;;;;;;;19.38;15.18;;;;;;;;;;5052989;28;20053;-52
2022/08/20 05:49:37;;;;;;;26.58;17.20;;;;;;;;;;5053165;28;20174;-51
2022/08/20 05:52:04;;;;;;;26.20;17.15;;;;;;;;;;5052317;28;20385;-52
2022/08/20 05:54:33;;;;;;;24.90;18.15;;;;;;;;;;5053244;28;20056;-52
2022/08/20 05:57:03;;;;;;;26.67;18.73;;;;;;;;;;5052887;28;20131;-52
2022/08/20 05:59:33;;;;;;;20.60;16.55;;;;;;;;;;5053137;28;20135;-52
2022/08/20 06:04:23;;;;;;;27.13;20.58;;;;;;;;;;5052875;28;20048;-55
2022/08/20 06:04:49;;;;;;;24.35;18.42;;;;;;;;;;5052734;28;20056;-52
2022/08/20 06:07:15;;;;;;;23.38;16.23;;;;;;;;;;5051923;28;20043;-51
2022/08/20 06:09:47;;;;;;;27.88;19.25;;;;;;;;;;5052388;28;20052;-51
2022/08/20 06:12:17;;;;;;;29.00;19.58;;;;;;;;;;5043956;28;20148;-52
2022/08/20 06:14:46;;;;;;;24.58;17.98;;;;;;;;;;5042697;28;20162;-52
2022/08/20 06:17:13;;;;;;;23.63;17.70;;;;;;;;;;5043665;28;20045;-53
2022/08/20 06:19:42;;;;;;;27.83;19.38;;;;;;;;;;5043097;28;20061;-55
2022/08/20 06:22:09;;;;;;;26.15;17.70;;;;;;;;;;5041162;28;20041;-53
2022/08/20 06:24:41;;;;;;;25.92;17.92;;;;;;;;;;5040726;28;20144;-54
2022/08/20 06:27:13;;;;;;;26.73;19.40;;;;;;;;;;5039745;28;20049;-51
2022/08/20 06:29:40;;;;;;;24.88;16.52;;;;;;;;;;5052336;28;20110;-55
2022/08/20 06:32:10;;;;;;;21.80;16.15;;;;;;;;;;5052232;28;20095;-54
2022/08/20 06:34:36;;;;;;;18.75;14.65;;;;;;;;;;5041453;28;20077;-49
2022/08/20 06:37:13;;;;;;;23.13;15.63;;;;;;;;;;5046126;28;20052;-49
2022/08/20 06:39:41;;;;;;;25.40;15.82;;;;;;;;;;5053019;28;20060;-48
2022/08/20 06:42:09;;;;;;;21.05;13.88;;;;;;;;;;5053737;28;20132;-48
2022/08/20 06:44:36;;;;;;;23.00;14.70;;;;;;;;;;5054589;28;20128;-50
2022/08/20 06:47:08;;;;;;;22.42;13.30;;;;;;;;;;5044952;28;20083;-51
2022/08/20 06:49:35;;;;;;;20.20;14.35;;;;;;;;;;5055356;28;20057;-52
2022/08/20 06:52:02;;;;;;;19.50;14.43;;;;;;;;;;5054977;28;20045;-51
2022/08/20 06:54:33;;;;;;;17.33;13.30;;;;;;;;;;5055811;28;20073;-51
2022/08/20 06:57:00;;;;;;;15.30;12.18;;;;;;;;;;5055008;28;20052;-50
2022/08/20 06:59:43;;;;;;;19.35;14.10;;;;;;;;;;5055120;28;20461;-51
2022/08/20 07:02:15;;;;;;;19.88;12.82;;;;;;;;;;5054914;28;20053;-51
2022/08/20 07:04:45;;;;;;;17.08;13.32;;;;;;;;;;5054968;28;20052;-52
2022/08/20 07:07:15;;;;;;;20.45;12.98;;;;;;;;;;5054171;28;20072;-49
2022/08/20 07:09:46;;;;;;;19.58;11.48;;;;;;;;;;5055029;28;20063;-49
2022/08/20 07:12:13;;;;;;;14.63;11.00;;;;;;;;;;5054434;28;20500;-52
2022/08/20 07:14:42;;;;;;;18.77;11.75;;;;;;;;;;5054097;28;20114;-50
2022/08/20 07:17:10;;;;;;;12.20;9.60;;;;;;;;;;5054206;28;20057;-49
2022/08/20 07:19:37;;;;;;;14.82;9.80;;;;;;;;;;5048934;28;20049;-50
2022/08/20 07:22:03;;;;;;;16.05;9.50;;;;;;;;;;5052107;28;20359;-49
2022/08/20 07:24:30;;;;;;;12.57;8.57;;;;;;;;;;5054106;28;20462;-49
2022/08/20 07:26:56;;;;;;;13.65;8.98;;;;;;;;;;5052776;28;20385;-49
2022/08/20 07:32:32;;;;;;;11.10;7.93;;;;;;;;;;5052696;28;20056;-49
2022/08/20 07:34:54;;;;;;;12.80;8.85;;;;;;;;;;5052867;28;20111;-52
2022/08/20 07:37:22;;;;;;;15.20;8.60;;;;;;;;;;5052395;28;20061;-51
2022/08/20 07:39:49;;;;;;;14.75;9.05;;;;;;;;;;5054481;28;20095;-53
2022/08/20 07:42:15;;;;;;;10.07;6.07;;;;;;;;;;5054351;28;20134;-51
2022/08/20 07:44:42;;;;;;;9.80;6.53;;;;;;;;;;5053866;28;20049;-54
2022/08/20 07:47:08;;;;;;;12.35;6.57;;;;;;;;;;5049652;28;20059;-49
2022/08/20 07:49:38;;;;;;;12.27;7.40;;;;;;;;;;5053731;28;20485;-50
2022/08/20 07:52:05;;;;;;;11.52;6.65;;;;;;;;;;5053586;28;20060;-51
2022/08/20 07:54:31;;;;;;;11.45;6.60;;;;;;;;;;5049932;28;20474;-49
2022/08/20 07:57:00;;;;;;;15.23;7.70;;;;;;;;;;5043232;28;20044;-49
2022/08/20 07:59:26;;;;;;;13.40;7.03;;;;;;;;;;5054161;28;20128;-50
2022/08/20 08:01:52;;;;;;;11.88;6.78;;;;;;;;;;5054158;28;20045;-51
2022/08/20 08:04:18;;;;;;;11.40;6.90;;;;;;;;;;5053702;28;20389;-51
2022/08/20 08:06:46;;;;;;;11.18;6.60;;;;;;;;;;5054330;28;20053;-51
2022/08/20 08:09:13;;;;;;;15.77;7.07;;;;;;;;;;5054140;28;20053;-51
2022/08/20 08:11:41;;;;;;;14.07;7.75;;;;;;;;;;5054215;28;20045;-51
2022/08/20 08:14:09;;;;;;;12.63;8.18;;;;;;;;;;5053729;28;20041;-52
2022/08/20 08:16:36;;;;;;;10.52;7.22;;;;;;;;;;5053354;28;20056;-51
2022/08/20 08:19:05;;;;;;;12.70;7.63;;;;;;;;;;5053516;28;20059;-51
2022/08/20 08:21:32;;;;;;;15.07;6.85;;;;;;;;;;5053791;28;20138;-53
2022/08/20 08:24:00;;;;;;;13.60;8.18;;;;;;;;;;5052629;28;20056;-51
2022/08/20 08:26:27;;;;;;;13.65;8.55;;;;;;;;;;5053959;28;20056;-52
2022/08/20 08:28:53;;;;;;;11.00;7.43;;;;;;;;;;5053470;28;20358;-51
2022/08/20 08:31:20;;;;;;;14.55;8.13;;;;;;;;;;5052993;28;20486;-51
2022/08/20 08:33:46;;;;;;;12.95;7.72;;;;;;;;;;5053430;28;20063;-51
2022/08/20 08:36:14;;;;;;;17.05;9.30;;;;;;;;;;5053726;28;20056;-50
2022/08/20 08:38:41;;;;;;;13.68;9.30;;;;;;;;;;5047858;28;20489;-50
2022/08/20 08:41:13;;;;;;;15.85;9.15;;;;;;;;;;5046158;28;20053;-51
2022/08/20 08:43:40;;;;;;;15.77;8.25;;;;;;;;;;5052625;28;20041;-53
2022/08/20 08:46:09;;;;;;;12.73;8.40;;;;;;;;;;5052863;28;20045;-55
2022/08/20 08:48:37;;;;;;;16.13;9.18;;;;;;;;;;5053092;28;20056;-55
2022/08/20 08:51:06;;;;;;;18.30;9.15;;;;;;;;;;5053328;28;20048;-56
2022/08/20 08:53:36;;;;;;;15.45;8.05;;;;;;;;;;5051992;28;20560;-55
2022/08/20 08:56:03;;;;;;;14.13;9.15;;;;;;;;;;5053409;28;20048;-53
2022/08/20 08:58:32;;;;;;;15.63;9.02;;;;;;;;;;5053075;28;20049;-53
2022/08/20 09:01:01;;;;;;;18.25;9.38;;;;;;;;;;5041899;28;20053;-53
2022/08/20 09:03:29;;;;;;;12.38;8.27;;;;;;;;;;5051992;28;20048;-55
2022/08/20 09:05:58;;;;;;;11.50;8.32;;;;;;;;;;5052672;28;20429;-54
2022/08/20 09:08:26;;;;;;;11.30;8.30;;;;;;;;;;5052803;28;20053;-55
2022/08/20 09:11:00;;;;;;;11.55;7.65;;;;;;;;;;5052168;28;20057;-52
2022/08/20 09:13:31;;;;;;;11.68;7.05;;;;;;;;;;5050875;28;20468;-55
2022/08/20 09:15:57;;;;;;;12.30;8.23;;;;;;;;;;5052339;28;20174;-52
2022/08/20 09:18:24;;;;;;;14.00;9.00;;;;;;;;;;5052456;28;20118;-56
2022/08/20 09:20:50;;;;;;;12.70;7.32;;;;;;;;;;5052499;28;20049;-49
2022/08/20 09:23:19;;;;;;;10.18;6.93;;;;;;;;;;5050992;28;20381;-50
2022/08/20 09:25:45;;;;;;;10.68;7.88;;;;;;;;;;5051909;28;20362;-49
2022/08/20 09:28:12;;;;;;;13.32;8.07;;;;;;;;;;5052069;28;20781;-52
2022/08/20 09:30:40;;;;;;;10.50;7.53;;;;;;;;;;5049156;28;20057;-51
2022/08/20 09:33:06;;;;;;;11.50;7.30;;;;;;;;;;5049189;28;20049;-52
2022/08/20 09:35:33;;;;;;;10.82;7.10;;;;;;;;;;5050079;28;20084;-54
2022/08/20 09:37:59;;;;;;;16.67;7.95;;;;;;;;;;5052280;28;20049;-51
2022/08/20 09:40:26;;;;;;;12.57;7.53;;;;;;;;;;5052466;28;20052;-51
2022/08/20 09:42:52;;;;;;;10.55;7.55;;;;;;;;;;5051770;28;20049;-54
2022/08/20 09:45:19;;;;;;;12.10;7.70;;;;;;;;;;5051905;28;20080;-55
2022/08/20 09:47:47;;;;;;;10.75;7.68;;;;;;;;;;5049098;28;20045;-55
2022/08/20 09:50:13;;;;;;;12.40;8.30;;;;;;;;;;5052477;28;20080;-53
2022/08/20 09:52:41;;;;;;;14.77;8.55;;;;;;;;;;5046432;28;20448;-56
2022/08/20 09:55:14;;;;;;;11.35;8.02;;;;;;;;;;5052201;28;20061;-53
2022/08/20 09:57:41;;;;;;;15.90;8.38;;;;;;;;;;5052635;28;20079;-54
2022/08/20 10:00:09;;;;;;;15.07;8.43;;;;;;;;;;5050811;28;20063;-52
2022/08/20 10:02:35;;;;;;;11.45;7.57;;;;;;;;;;5048477;28;20052;-54
2022/08/20 10:05:03;;;;;;;12.27;8.27;;;;;;;;;;5053647;28;20063;-55
2022/08/20 10:07:29;;;;;;;10.25;7.93;;;;;;;;;;5051911;28;20048;-52
2022/08/20 10:09:56;;;;;;;11.02;7.80;;;;;;;;;;5051358;28;20432;-53
2022/08/20 10:12:22;;;;;;;11.57;8.05;;;;;;;;;;5052163;28;20106;-51
2022/08/20 10:14:48;;;;;;;17.63;9.32;;;;;;;;;;5056518;28;20071;-52
2022/08/20 10:17:15;;;;;;;13.40;8.48;;;;;;;;;;5056099;28;20063;-53
2022/08/20 10:19:41;;;;;;;13.43;9.60;;;;;;;;;;5056216;28;20056;-52
2022/08/20 10:22:09;;;;;;;14.10;9.07;;;;;;;;;;5045964;28;20049;-52
2022/08/20 10:24:35;;;;;;;14.07;8.82;;;;;;;;;;5055766;28;20060;-56
2022/08/20 10:27:01;;;;;;;12.65;8.52;;;;;;;;;;5055960;28;20041;-54
2022/08/20 10:29:29;;;;;;;14.38;9.35;;;;;;;;;;5055801;28;20052;-53
2022/08/20 10:31:57;;;;;;;17.08;10.90;;;;;;;;;;5054168;28;20141;-53
2022/08/20 10:34:23;;;;;;;16.30;9.60;;;;;;;;;;5053105;28;20061;-54
2022/08/20 10:36:50;;;;;;;13.02;9.02;;;;;;;;;;5051216;28;20569;-55
2022/08/20 10:39:17;;;;;;;13.57;9.98;;;;;;;;;;5055251;28;20059;-56
2022/08/20 10:41:45;;;;;;;16.55;10.30;;;;;;;;;;5055884;28;20061;-52
2022/08/20 10:44:11;;;;;;;14.98;9.75;;;;;;;;;;5055258;28;20436;-51
2022/08/20 10:46:38;;;;;;;13.93;9.10;;;;;;;;;;5055331;28;20537;-52
2022/08/20 10:49:04;;;;;;;11.90;8.05;;;;;;;;;;5054675;28;20131;-51
2022/08/20 10:51:30;;;;;;;9.75;7.80;;;;;;;;;;5055180;28;20488;-51
2022/08/20 10:53:57;;;;;;;14.90;8.45;;;;;;;;;;5055579;28;20049;-51
2022/08/20 10:56:25;;;;;;;12.07;8.90;;;;;;;;;;5055390;28;20045;-51
2022/08/20 10:58:51;;;;;;;14.88;8.90;;;;;;;;;;5054985;28;20126;-55
2022/08/20 11:01:17;;;;;;;12.75;8.88;;;;;;;;;;5054123;28;20481;-56
2022/08/20 11:03:44;;;;;;;18.55;8.88;;;;;;;;;;5055431;28;20084;-56
2022/08/20 11:06:10;;;;;;;13.18;8.52;;;;;;;;;;5054323;28;20052;-53
2022/08/20 11:08:37;;;;;;;9.55;7.72;;;;;;;;;;5054655;28;20484;-52
2022/08/20 11:11:04;;;;;;;18.23;9.25;;;;;;;;;;5054652;28;20049;-51
2022/08/20 11:13:32;;;;;;;14.68;8.73;;;;;;;;;;5054520;28;20060;-51
2022/08/20 11:15:58;;;;;;;11.10;8.60;;;;;;;;;;5054112;28;20114;-51
2022/08/20 11:18:27;;;;;;;11.50;8.15;;;;;;;;;;5054437;28;20139;-55
2022/08/20 11:20:54;;;;;;;12.93;8.55;;;;;;;;;;5054505;28;20067;-52
2022/08/20 11:23:21;;;;;;;9.93;7.75;;;;;;;;;;5053932;28;20049;-52
2022/08/20 11:25:47;;;;;;;18.35;10.13;;;;;;;;;;5054151;28;20057;-52
2022/08/20 11:28:14;;;;;;;13.20;9.10;;;;;;;;;;5054198;28;20350;-52
2022/08/20 11:30:43;;;;;;;11.68;7.93;;;;;;;;;;5051707;28;20061;-55
2022/08/20 11:33:09;;;;;;;11.38;7.35;;;;;;;;;;5045481;28;20041;-54
2022/08/20 11:35:36;;;;;;;13.38;9.35;;;;;;;;;;5054804;28;20055;-51
2022/08/20 11:38:03;;;;;;;11.20;8.02;;;;;;;;;;5054710;28;20106;-52
2022/08/20 11:40:30;;;;;;;17.85;10.35;;;;;;;;;;5055251;28;20055;-53
2022/08/20 11:42:56;;;;;;;11.90;8.07;;;;;;;;;;5053876;28;20130;-51
2022/08/20 11:45:22;;;;;;;14.93;10.32;;;;;;;;;;5054840;28;20063;-52
2022/08/20 11:47:50;;;;;;;12.93;9.40;;;;;;;;;;5054338;28;20075;-53
2022/08/20 11:50:17;;;;;;;14.48;9.95;;;;;;;;;;5054933;28;20060;-51
2022/08/20 11:52:44;;;;;;;15.93;9.60;;;;;;;;;;5054728;28;20064;-55
2022/08/20 11:55:12;;;;;;;14.10;9.27;;;;;;;;;;5052652;28;20343;-50
2022/08/20 11:57:48;;;;;;;13.73;9.65;;;;;;;;;;5053375;28;20052;-53
2022/08/20 12:00:16;;;;;;;10.80;8.40;;;;;;;;;;5053705;28;20045;-54
2022/08/20 12:02:43;;;;;;;11.10;8.50;;;;;;;;;;5052190;28;20052;-52
2022/08/20 12:05:13;;;;;;;13.70;7.68;;;;;;;;;;5053762;28;20073;-53
2022/08/20 12:07:42;;;;;;;14.68;8.77;;;;;;;;;;5052810;28;20107;-53
2022/08/20 12:10:09;;;;;;;13.93;9.63;;;;;;;;;;5044272;28;20053;-52
2022/08/20 12:12:36;;;;;;;9.70;7.68;;;;;;;;;;5044191;28;20091;-52
2022/08/20 12:15:03;;;;;;;9.85;8.30;;;;;;;;;;5046792;28;20048;-55
2022/08/20 12:17:31;;;;;;;13.38;9.07;;;;;;;;;;5048929;28;20057;-53
2022/08/20 12:19:59;;;;;;;8.68;7.55;;;;;;;;;;5053037;28;20698;-55
2022/08/20 12:22:26;;;;;;;13.02;9.50;;;;;;;;;;5053538;28;20055;-52
2022/08/20 12:24:53;;;;;;;12.38;9.40;;;;;;;;;;5053353;28;20143;-51
2022/08/20 12:27:21;;;;;;;11.68;9.02;;;;;;;;;;5052602;28;20110;-51
2022/08/20 12:29:51;;;;;;;11.93;8.85;;;;;;;;;;5053055;28;20045;-51
2022/08/20 12:32:17;;;;;;;13.18;8.38;;;;;;;;;;5051341;28;20052;-52
2022/08/20 12:34:44;;;;;;;11.85;8.70;;;;;;;;;;5045412;28;20053;-49
2022/08/20 12:37:11;;;;;;;21.10;11.48;;;;;;;;;;5045606;28;20056;-51
2022/08/20 12:39:40;;;;;;;15.18;11.90;;;;;;;;;;5047286;28;20064;-48
2022/08/20 12:42:07;;;;;;;22.85;14.20;;;;;;;;;;5051607;28;20359;-49
2022/08/20 12:44:33;;;;;;;27.42;17.63;;;;;;;;;;5051125;28;20091;-52
2022/08/20 12:47:07;;;;;;;20.52;16.15;;;;;;;;;;5051313;28;20091;-47
2022/08/20 12:49:33;;;;;;;22.05;16.40;;;;;;;;;;5052490;28;20056;-46
2022/08/20 12:52:00;;;;;;;23.35;16.95;;;;;;;;;;5052130;28;20071;-48
2022/08/20 12:54:26;;;;;;;35.70;16.52;;;;;;;;;;5051735;28;20063;-47
2022/08/20 12:56:54;;;;;;;22.92;16.90;;;;;;;;;;5050634;28;20045;-47
2022/08/20 12:59:22;;;;;;;25.10;18.77;;;;;;;;;;5052787;28;20053;-47
2022/08/20 13:01:48;;;;;;;35.50;21.23;;;;;;;;;;5052905;28;20053;-46
2022/08/20 13:04:14;;;;;;;43.58;24.35;;;;;;;;;;5052593;28;20052;-47
2022/08/20 13:06:40;;;;;;;36.75;20.65;;;;;;;;;;5052943;28;20123;-47
2022/08/20 13:09:07;;;;;;;14.63;6.63;;;;;;;;;;5053493;28;20053;-48
2022/08/20 13:11:33;;;;;;;13.13;6.57;;;;;;;;;;5053650;28;20473;-47
2022/08/20 13:14:01;;;;;;;10.32;5.00;;;;;;;;;;5053695;28;20055;-47
2022/08/20 13:16:27;;;;;;;6.03;3.10;;;;;;;;;;5053145;28;20526;-47
2022/08/20 13:18:53;;;;;;;5.78;2.90;;;;;;;;;;5053342;28;20045;-47
2022/08/20 13:21:20;;;;;;;8.73;3.65;;;;;;;;;;5053531;28;20075;-46
2022/08/20 13:23:46;;;;;;;10.05;4.85;;;;;;;;;;5045595;28;20059;-46
2022/08/20 13:26:12;;;;;;;17.17;9.20;;;;;;;;;;5033514;28;20148;-48
2022/08/20 13:28:39;;;;;;;13.93;9.43;;;;;;;;;;5053042;28;20049;-50
2022/08/20 13:31:06;;;;;;;16.83;12.23;;;;;;;;;;5053092;28;20057;-47
2022/08/20 13:33:33;;;;;;;13.75;9.77;;;;;;;;;;5053217;28;20049;-47
2022/08/20 13:35:59;;;;;;;13.93;10.00;;;;;;;;;;5052975;28;20484;-47
2022/08/20 13:38:25;;;;;;;12.23;8.13;;;;;;;;;;5052868;28;20394;-48
2022/08/20 13:40:52;;;;;;;10.57;7.82;;;;;;;;;;5052883;28;20382;-47
2022/08/20 13:43:18;;;;;;;15.00;9.30;;;;;;;;;;5053210;28;20072;-47
2022/08/20 13:45:44;;;;;;;14.73;10.00;;;;;;;;;;5053012;28;20055;-47
2022/08/20 13:48:12;;;;;;;17.48;12.73;;;;;;;;;;5052842;28;20056;-48
2022/08/20 13:50:38;;;;;;;19.73;14.15;;;;;;;;;;5053026;28;20470;-47
2022/08/20 13:53:05;;;;;;;25.08;16.90;;;;;;;;;;5052720;28;20047;-47
2022/08/20 13:55:31;;;;;;;21.65;15.48;;;;;;;;;;5053021;28;20417;-47
2022/08/20 13:57:57;;;;;;;24.75;17.30;;;;;;;;;;5052730;28;20438;-48
2022/08/20 14:00:25;;;;;;;23.40;16.75;;;;;;;;;;5052947;28;20388;-48
2022/08/20 14:02:51;;;;;;;21.08;15.55;;;;;;;;;;5052924;28;20045;-47
2022/08/20 14:05:19;;;;;;;28.38;17.98;;;;;;;;;;5052670;28;20053;-47
2022/08/20 14:07:46;;;;;;;25.05;16.80;;;;;;;;;;5053018;28;20056;-48
2022/08/20 14:10:13;;;;;;;22.92;15.98;;;;;;;;;;5053005;28;20068;-46
2022/08/20 14:12:40;;;;;;;22.95;16.42;;;;;;;;;;5052643;28;20362;-47
2022/08/20 14:15:07;;;;;;;23.10;15.98;;;;;;;;;;5052695;28;20129;-48
2022/08/20 14:17:34;;;;;;;26.60;17.88;;;;;;;;;;5052765;28;20091;-46
2022/08/20 14:20:04;;;;;;;20.63;15.98;;;;;;;;;;5052538;28;20068;-49
2022/08/20 14:22:32;;;;;;;20.48;14.82;;;;;;;;;;5052543;28;20053;-48
2022/08/20 14:25:01;;;;;;;21.25;15.38;;;;;;;;;;5052472;28;20049;-47
2022/08/20 14:27:28;;;;;;;24.70;15.10;;;;;;;;;;5052800;28;20108;-50
2022/08/20 14:29:54;;;;;;;21.23;14.15;;;;;;;;;;5052452;28;20049;-48
2022/08/20 14:32:20;;;;;;;23.40;14.90;;;;;;;;;;5051417;28;20056;-49
2022/08/20 14:34:46;;;;;;;18.63;11.73;;;;;;;;;;5048626;28;20040;-51
2022/08/20 14:37:14;;;;;;;15.90;11.15;;;;;;;;;;5052125;28;20049;-48